ASA25 KJFK-KSAN
Flight info
| Callsign | ASA25 |
|---|---|
| Flight time | N/A |
| Altitude | 36000 |
| Route | RBV Q430 AIR FYLLS WLDBL GOSSL/N0450F380 CIM INW PKE LUCKI1 |
| Aircraft | B738/M-SDE2E3FGHIRWXY/LB1 |
Departure
| Time | N/A |
|---|---|
| Airport | John F. Kennedy International Airport (KJFK) |
Arrival
| Time | 2026-04-22 14:54 |
|---|---|
| Airport | San Diego International Airport (KSAN) |
| Time | Latitude | Longitude | Altitude | Speed | Heading |
|---|---|---|---|---|---|
| 2026-04-22 12:37 | 37.50922 | -101.17071 | 35954 ft | 440 kts | 251° |
| 2026-04-22 12:37 | 37.49982 | -101.20739 | 35947 ft | 441 kts | 251° |
| 2026-04-22 12:38 | 37.48096 | -101.28088 | 35955 ft | 440 kts | 250° |
| 2026-04-22 12:38 | 37.46221 | -101.35370 | 35954 ft | 438 kts | 250° |
| 2026-04-22 12:39 | 37.43401 | -101.46284 | 35940 ft | 435 kts | 250° |
| 2026-04-22 12:40 | 37.41525 | -101.53516 | 35923 ft | 434 kts | 250° |
| 2026-04-22 12:40 | 37.39651 | -101.60718 | 35932 ft | 432 kts | 250° |
| 2026-04-22 12:41 | 37.37791 | -101.67849 | 35929 ft | 431 kts | 251° |
| 2026-04-22 12:41 | 37.35916 | -101.75016 | 35923 ft | 430 kts | 251° |
| 2026-04-22 12:42 | 37.34042 | -101.82160 | 35911 ft | 430 kts | 251° |
| 2026-04-22 12:42 | 37.32160 | -101.89314 | 35891 ft | 431 kts | 251° |
| 2026-04-22 12:43 | 37.30283 | -101.96430 | 35891 ft | 431 kts | 251° |
| 2026-04-22 12:43 | 37.28387 | -102.03597 | 35885 ft | 432 kts | 251° |
| 2026-04-22 12:44 | 37.26484 | -102.10773 | 35878 ft | 433 kts | 251° |
| 2026-04-22 12:44 | 37.24574 | -102.17954 | 35858 ft | 434 kts | 251° |
| 2026-04-22 12:45 | 37.22670 | -102.25093 | 35842 ft | 434 kts | 251° |
| 2026-04-22 12:45 | 37.20744 | -102.32292 | 35840 ft | 434 kts | 251° |
| 2026-04-22 12:46 | 37.18819 | -102.39471 | 35828 ft | 435 kts | 251° |
| 2026-04-22 12:46 | 37.16885 | -102.46662 | 35830 ft | 435 kts | 251° |
| 2026-04-22 12:47 | 37.15274 | -102.52635 | 35833 ft | 434 kts | 251° |
| 2026-04-22 12:47 | 37.13024 | -102.60959 | 35832 ft | 434 kts | 251° |
| 2026-04-22 12:48 | 37.11397 | -102.66961 | 35835 ft | 433 kts | 251° |
| 2026-04-22 12:48 | 37.09465 | -102.74070 | 35841 ft | 433 kts | 251° |
| 2026-04-22 12:49 | 37.07518 | -102.81212 | 35843 ft | 432 kts | 251° |
| 2026-04-22 12:49 | 37.05580 | -102.88308 | 35845 ft | 432 kts | 251° |
| 2026-04-22 12:50 | 37.03627 | -102.95433 | 35844 ft | 431 kts | 251° |
| 2026-04-22 12:50 | 37.01680 | -103.02521 | 35844 ft | 431 kts | 251° |
| 2026-04-22 12:51 | 36.99724 | -103.09622 | 35843 ft | 430 kts | 251° |
| 2026-04-22 12:51 | 36.97782 | -103.16654 | 35842 ft | 429 kts | 251° |
| 2026-04-22 12:52 | 36.95830 | -103.23701 | 35837 ft | 429 kts | 251° |
| 2026-04-22 12:52 | 36.93877 | -103.30738 | 35834 ft | 428 kts | 251° |
| 2026-04-22 12:53 | 36.91923 | -103.37753 | 35831 ft | 427 kts | 251° |
| 2026-04-22 12:53 | 36.89971 | -103.44749 | 35833 ft | 426 kts | 251° |
| 2026-04-22 12:54 | 36.88017 | -103.51729 | 35826 ft | 425 kts | 251° |
| 2026-04-22 12:54 | 36.86077 | -103.58647 | 35825 ft | 424 kts | 251° |
| 2026-04-22 12:55 | 36.84122 | -103.65596 | 35826 ft | 423 kts | 251° |
| 2026-04-22 12:55 | 36.82169 | -103.72519 | 35839 ft | 422 kts | 250° |
| 2026-04-22 12:56 | 36.80216 | -103.79428 | 35840 ft | 422 kts | 250° |
| 2026-04-22 12:56 | 36.78258 | -103.86335 | 35851 ft | 421 kts | 250° |
| 2026-04-22 12:57 | 36.76304 | -103.93210 | 35857 ft | 421 kts | 250° |
| 2026-04-22 12:57 | 36.74356 | -104.00047 | 35873 ft | 420 kts | 250° |
| 2026-04-22 12:58 | 36.72396 | -104.06910 | 35888 ft | 420 kts | 250° |
| 2026-04-22 12:58 | 36.70432 | -104.13770 | 35937 ft | 420 kts | 250° |
| 2026-04-22 12:59 | 36.68467 | -104.20615 | 35984 ft | 419 kts | 250° |
| 2026-04-22 12:59 | 36.66488 | -104.27456 | 36018 ft | 419 kts | 250° |
| 2026-04-22 13:00 | 36.64535 | -104.34245 | 36046 ft | 418 kts | 250° |
| 2026-04-22 13:00 | 36.62566 | -104.41068 | 36060 ft | 418 kts | 250° |
| 2026-04-22 13:01 | 36.60592 | -104.47881 | 36065 ft | 418 kts | 249° |
| 2026-04-22 13:01 | 36.58618 | -104.54672 | 36057 ft | 417 kts | 249° |
| 2026-04-22 13:02 | 36.56643 | -104.61451 | 36019 ft | 417 kts | 249° |
| 2026-04-22 13:02 | 36.54667 | -104.68218 | 35992 ft | 416 kts | 249° |
| 2026-04-22 13:03 | 36.52689 | -104.74976 | 35958 ft | 416 kts | 249° |
| 2026-04-22 13:03 | 36.50716 | -104.81701 | 35922 ft | 415 kts | 249° |
| 2026-04-22 13:04 | 36.48789 | -104.88478 | 35952 ft | 416 kts | 253° |
| 2026-04-22 13:04 | 36.47281 | -104.95430 | 36033 ft | 416 kts | 254° |
| 2026-04-22 13:05 | 36.45821 | -105.02409 | 36106 ft | 417 kts | 253° |
| 2026-04-22 13:05 | 36.44356 | -105.09336 | 36177 ft | 418 kts | 253° |
| 2026-04-22 13:06 | 36.42860 | -105.16326 | 36241 ft | 418 kts | 253° |
| 2026-04-22 13:06 | 36.41363 | -105.23272 | 36258 ft | 418 kts | 253° |
| 2026-04-22 13:07 | 36.39852 | -105.30254 | 36259 ft | 419 kts | 253° |
| 2026-04-22 13:07 | 36.38336 | -105.37239 | 36257 ft | 419 kts | 253° |
| 2026-04-22 13:08 | 36.36813 | -105.44228 | 36220 ft | 419 kts | 253° |
| 2026-04-22 13:08 | 36.35292 | -105.51194 | 36156 ft | 418 kts | 253° |
| 2026-04-22 13:09 | 36.33767 | -105.58158 | 36097 ft | 418 kts | 253° |
| 2026-04-22 13:09 | 36.32238 | -105.65115 | 36039 ft | 418 kts | 252° |
| 2026-04-22 13:10 | 36.30707 | -105.72064 | 35989 ft | 417 kts | 252° |
| 2026-04-22 13:10 | 36.29180 | -105.78969 | 35994 ft | 417 kts | 252° |
| 2026-04-22 13:11 | 36.27643 | -105.85901 | 35985 ft | 417 kts | 252° |
| 2026-04-22 13:11 | 36.26101 | -105.92838 | 35984 ft | 417 kts | 252° |
| 2026-04-22 13:12 | 36.24562 | -105.99735 | 35981 ft | 417 kts | 252° |
| 2026-04-22 13:12 | 36.23013 | -106.06661 | 35980 ft | 417 kts | 252° |
| 2026-04-22 13:13 | 36.21461 | -106.13578 | 35990 ft | 416 kts | 252° |
| 2026-04-22 13:13 | 36.19904 | -106.20494 | 36016 ft | 416 kts | 252° |
| 2026-04-22 13:14 | 36.18361 | -106.27334 | 36029 ft | 415 kts | 252° |
| 2026-04-22 13:14 | 36.16803 | -106.34217 | 36053 ft | 413 kts | 252° |
| 2026-04-22 13:15 | 36.15250 | -106.41059 | 36051 ft | 410 kts | 252° |
| 2026-04-22 13:15 | 36.13713 | -106.47809 | 36046 ft | 409 kts | 252° |
| 2026-04-22 13:16 | 36.12168 | -106.54574 | 36022 ft | 408 kts | 252° |
| 2026-04-22 13:16 | 36.10626 | -106.61309 | 36004 ft | 406 kts | 251° |
| 2026-04-22 13:17 | 36.09081 | -106.68037 | 36028 ft | 405 kts | 251° |
| 2026-04-22 13:17 | 36.07546 | -106.74705 | 36011 ft | 405 kts | 251° |
| 2026-04-22 13:18 | 36.06002 | -106.81392 | 36020 ft | 404 kts | 251° |
| 2026-04-22 13:18 | 36.04455 | -106.88069 | 36035 ft | 405 kts | 251° |
| 2026-04-22 13:19 | 36.02900 | -106.94764 | 36029 ft | 405 kts | 251° |
| 2026-04-22 13:19 | 36.01344 | -107.01445 | 36024 ft | 405 kts | 251° |
| 2026-04-22 13:20 | 35.99784 | -107.08129 | 36026 ft | 405 kts | 251° |
| 2026-04-22 13:20 | 35.98217 | -107.14819 | 36025 ft | 405 kts | 251° |
| 2026-04-22 13:21 | 35.96652 | -107.21486 | 36020 ft | 404 kts | 251° |
| 2026-04-22 13:21 | 35.95098 | -107.28089 | 36024 ft | 402 kts | 251° |
| 2026-04-22 13:22 | 35.93536 | -107.34704 | 36021 ft | 400 kts | 251° |
| 2026-04-22 13:22 | 35.91976 | -107.41293 | 36025 ft | 398 kts | 251° |
| 2026-04-22 13:23 | 35.90420 | -107.47849 | 36021 ft | 396 kts | 251° |
| 2026-04-22 13:23 | 35.88871 | -107.54357 | 36012 ft | 394 kts | 251° |
| 2026-04-22 13:24 | 35.87335 | -107.60794 | 36009 ft | 393 kts | 251° |
| 2026-04-22 13:24 | 35.85792 | -107.67240 | 36007 ft | 391 kts | 251° |
| 2026-04-22 13:25 | 35.84252 | -107.73663 | 35992 ft | 391 kts | 251° |
| 2026-04-22 13:25 | 35.82708 | -107.80082 | 35989 ft | 390 kts | 251° |
| 2026-04-22 13:26 | 35.81163 | -107.86487 | 35974 ft | 390 kts | 251° |
| 2026-04-22 13:26 | 35.79615 | -107.92892 | 35979 ft | 390 kts | 251° |
| 2026-04-22 13:27 | 35.78061 | -107.99300 | 35971 ft | 391 kts | 251° |
| 2026-04-22 13:27 | 35.76509 | -108.05687 | 35963 ft | 392 kts | 251° |
| 2026-04-22 13:28 | 35.74942 | -108.12120 | 35950 ft | 392 kts | 251° |
| 2026-04-22 13:28 | 35.73366 | -108.18570 | 35952 ft | 393 kts | 251° |
| 2026-04-22 13:29 | 35.71786 | -108.25024 | 35942 ft | 394 kts | 252° |
| 2026-04-22 13:29 | 35.70196 | -108.31501 | 35930 ft | 395 kts | 252° |
| 2026-04-22 13:30 | 35.68608 | -108.37949 | 35933 ft | 396 kts | 252° |
| 2026-04-22 13:30 | 35.67003 | -108.44453 | 35964 ft | 398 kts | 252° |
| 2026-04-22 13:31 | 35.65387 | -108.50983 | 36013 ft | 400 kts | 252° |
| 2026-04-22 13:31 | 35.63760 | -108.57540 | 36069 ft | 401 kts | 252° |
| 2026-04-22 13:32 | 35.62125 | -108.64115 | 36114 ft | 402 kts | 252° |
| 2026-04-22 13:32 | 35.60496 | -108.70647 | 36167 ft | 402 kts | 253° |
| 2026-04-22 13:33 | 35.58854 | -108.77216 | 36192 ft | 402 kts | 253° |
| 2026-04-22 13:33 | 35.57486 | -108.82676 | 36194 ft | 401 kts | 253° |
| 2026-04-22 13:34 | 35.55837 | -108.89240 | 36188 ft | 400 kts | 253° |
| 2026-04-22 13:34 | 35.54198 | -108.95749 | 36147 ft | 398 kts | 253° |
| 2026-04-22 13:35 | 35.52565 | -109.02216 | 36158 ft | 397 kts | 253° |
| 2026-04-22 13:35 | 35.50928 | -109.08685 | 36158 ft | 396 kts | 253° |
| 2026-04-22 13:36 | 35.49292 | -109.15132 | 36132 ft | 395 kts | 254° |
| 2026-04-22 13:36 | 35.47659 | -109.21552 | 36102 ft | 393 kts | 254° |
| 2026-04-22 13:37 | 35.46038 | -109.27907 | 36064 ft | 392 kts | 254° |
| 2026-04-22 13:37 | 35.44404 | -109.34299 | 36019 ft | 392 kts | 254° |
| 2026-04-22 13:38 | 35.42770 | -109.40677 | 35984 ft | 392 kts | 254° |
| 2026-04-22 13:38 | 35.40309 | -109.50250 | 35978 ft | 392 kts | 254° |
| 2026-04-22 13:39 | 35.38673 | -109.56596 | 35974 ft | 393 kts | 255° |
| 2026-04-22 13:39 | 35.37023 | -109.62979 | 35981 ft | 393 kts | 255° |
| 2026-04-22 13:40 | 35.35368 | -109.69368 | 35987 ft | 393 kts | 255° |
| 2026-04-22 13:40 | 35.33713 | -109.75741 | 35979 ft | 393 kts | 255° |
| 2026-04-22 13:41 | 35.32054 | -109.82114 | 35985 ft | 393 kts | 255° |
| 2026-04-22 13:41 | 35.30391 | -109.88484 | 35991 ft | 392 kts | 255° |
| 2026-04-22 13:42 | 35.28727 | -109.94843 | 35987 ft | 392 kts | 255° |
| 2026-04-22 13:42 | 35.27059 | -110.01205 | 35988 ft | 392 kts | 255° |
| 2026-04-22 13:43 | 35.25402 | -110.07507 | 35989 ft | 391 kts | 255° |
| 2026-04-22 13:43 | 35.23732 | -110.13843 | 35996 ft | 390 kts | 255° |
| 2026-04-22 13:44 | 35.22065 | -110.20154 | 35992 ft | 389 kts | 255° |
| 2026-04-22 13:44 | 35.20398 | -110.26450 | 35999 ft | 388 kts | 255° |
| 2026-04-22 13:45 | 35.18733 | -110.32725 | 36001 ft | 387 kts | 255° |
| 2026-04-22 13:45 | 35.17066 | -110.38991 | 36014 ft | 387 kts | 255° |
| 2026-04-22 13:46 | 35.15412 | -110.45197 | 36063 ft | 385 kts | 255° |
| 2026-04-22 13:46 | 35.14728 | -110.47759 | 36068 ft | 385 kts | 255° |
| 2026-04-22 13:47 | 35.13066 | -110.53971 | 36102 ft | 384 kts | 255° |
| 2026-04-22 13:47 | 35.11400 | -110.60185 | 36131 ft | 383 kts | 255° |
| 2026-04-22 13:48 | 35.09737 | -110.66376 | 36155 ft | 383 kts | 255° |
| 2026-04-22 13:48 | 35.08077 | -110.72544 | 36155 ft | 382 kts | 255° |
| 2026-04-22 13:49 | 35.06424 | -110.78668 | 36153 ft | 381 kts | 255° |
| 2026-04-22 13:49 | 35.04895 | -110.84852 | 36146 ft | 379 kts | 257° |
| 2026-04-22 13:50 | 35.03502 | -110.91061 | 36119 ft | 379 kts | 258° |
| 2026-04-22 13:50 | 35.02115 | -110.97225 | 36092 ft | 379 kts | 258° |
| 2026-04-22 13:51 | 35.00702 | -111.03413 | 36064 ft | 379 kts | 257° |
| 2026-04-22 13:51 | 34.99277 | -111.09601 | 36029 ft | 379 kts | 257° |
| 2026-04-22 13:52 | 34.97843 | -111.15802 | 36002 ft | 379 kts | 257° |
| 2026-04-22 13:52 | 34.96414 | -111.21958 | 36004 ft | 379 kts | 257° |
| 2026-04-22 13:53 | 34.94973 | -111.28152 | 36005 ft | 380 kts | 257° |
| 2026-04-22 13:53 | 34.93527 | -111.34348 | 36025 ft | 380 kts | 257° |
| 2026-04-22 13:54 | 34.92803 | -111.37448 | 36040 ft | 380 kts | 258° |
| 2026-04-22 13:54 | 34.90605 | -111.46828 | 36064 ft | 380 kts | 258° |
| 2026-04-22 13:55 | 34.89149 | -111.53017 | 36101 ft | 380 kts | 258° |
| 2026-04-22 13:55 | 34.87693 | -111.59198 | 36130 ft | 379 kts | 258° |
| 2026-04-22 13:56 | 34.86236 | -111.65366 | 36153 ft | 379 kts | 258° |
| 2026-04-22 13:56 | 34.84789 | -111.71481 | 36135 ft | 377 kts | 258° |
| 2026-04-22 13:57 | 34.83335 | -111.77600 | 36171 ft | 376 kts | 257° |
| 2026-04-22 13:57 | 34.81883 | -111.83700 | 36163 ft | 375 kts | 257° |
| 2026-04-22 13:58 | 34.80433 | -111.89775 | 36164 ft | 373 kts | 257° |
| 2026-04-22 13:58 | 34.78993 | -111.95797 | 36139 ft | 371 kts | 257° |
| 2026-04-22 13:59 | 34.77551 | -112.01814 | 36104 ft | 370 kts | 257° |
| 2026-04-22 13:59 | 34.76106 | -112.07826 | 36070 ft | 369 kts | 257° |
| 2026-04-22 14:00 | 34.74664 | -112.13810 | 36090 ft | 369 kts | 257° |
| 2026-04-22 14:00 | 34.73213 | -112.19810 | 36091 ft | 369 kts | 256° |
| 2026-04-22 14:01 | 34.71773 | -112.25743 | 36130 ft | 367 kts | 257° |
| 2026-04-22 14:01 | 34.70335 | -112.31680 | 36163 ft | 365 kts | 257° |
| 2026-04-22 14:02 | 34.68896 | -112.37613 | 36162 ft | 364 kts | 257° |
| 2026-04-22 14:02 | 34.67469 | -112.43473 | 36166 ft | 364 kts | 257° |
| 2026-04-22 14:03 | 34.66027 | -112.49378 | 36166 ft | 364 kts | 257° |
| 2026-04-22 14:03 | 34.64582 | -112.55280 | 36142 ft | 364 kts | 257° |
| 2026-04-22 14:04 | 34.63133 | -112.61183 | 36117 ft | 366 kts | 257° |
| 2026-04-22 14:04 | 34.61673 | -112.67121 | 36085 ft | 368 kts | 257° |
| 2026-04-22 14:05 | 34.60212 | -112.73046 | 36057 ft | 368 kts | 257° |
| 2026-04-22 14:06 | 34.57996 | -112.82008 | 36013 ft | 370 kts | 257° |
| 2026-04-22 14:06 | 34.56508 | -112.88006 | 35992 ft | 371 kts | 257° |
| 2026-04-22 14:07 | 34.55018 | -112.94000 | 35998 ft | 371 kts | 257° |
| 2026-04-22 14:07 | 34.53532 | -112.99963 | 35989 ft | 372 kts | 257° |
| 2026-04-22 14:08 | 34.52036 | -113.05953 | 35986 ft | 371 kts | 256° |
| 2026-04-22 14:08 | 34.50537 | -113.11941 | 35981 ft | 370 kts | 256° |
| 2026-04-22 14:09 | 34.49042 | -113.17901 | 35989 ft | 369 kts | 256° |
| 2026-04-22 14:09 | 34.47545 | -113.23854 | 35986 ft | 368 kts | 256° |
| 2026-04-22 14:10 | 34.46052 | -113.29778 | 35983 ft | 367 kts | 256° |
| 2026-04-22 14:10 | 34.44558 | -113.35691 | 35993 ft | 367 kts | 256° |
| 2026-04-22 14:11 | 34.43070 | -113.41569 | 35982 ft | 366 kts | 256° |
| 2026-04-22 14:11 | 34.41571 | -113.47476 | 35985 ft | 366 kts | 256° |
| 2026-04-22 14:12 | 34.40071 | -113.53376 | 35984 ft | 367 kts | 256° |
| 2026-04-22 14:12 | 34.38565 | -113.59283 | 35980 ft | 367 kts | 256° |
| 2026-04-22 14:13 | 34.37067 | -113.65148 | 35987 ft | 367 kts | 256° |
| 2026-04-22 14:13 | 34.35555 | -113.71053 | 35992 ft | 367 kts | 256° |
| 2026-04-22 14:14 | 34.34036 | -113.76973 | 35993 ft | 368 kts | 256° |
| 2026-04-22 14:14 | 34.32519 | -113.82873 | 35993 ft | 369 kts | 256° |
| 2026-04-22 14:15 | 34.30991 | -113.88803 | 35998 ft | 369 kts | 256° |
| 2026-04-22 14:15 | 34.29461 | -113.94723 | 35998 ft | 370 kts | 256° |
| 2026-04-22 14:16 | 34.27923 | -114.00664 | 35994 ft | 371 kts | 256° |
| 2026-04-22 14:16 | 34.26636 | -114.05626 | 36000 ft | 371 kts | 256° |
| 2026-04-22 14:17 | 34.24833 | -114.12559 | 35999 ft | 372 kts | 256° |
| 2026-04-22 14:17 | 34.23531 | -114.17558 | 35993 ft | 372 kts | 256° |
| 2026-04-22 14:18 | 34.21971 | -114.23529 | 35997 ft | 372 kts | 256° |
| 2026-04-22 14:18 | 34.20419 | -114.29460 | 36002 ft | 372 kts | 256° |
| 2026-04-22 14:19 | 34.18853 | -114.35434 | 36005 ft | 372 kts | 255° |
| 2026-04-22 14:19 | 34.17284 | -114.41401 | 36011 ft | 372 kts | 255° |
| 2026-04-22 14:20 | 34.14929 | -114.50338 | 36013 ft | 372 kts | 255° |
| 2026-04-22 14:20 | 34.13351 | -114.56308 | 36017 ft | 373 kts | 255° |
| 2026-04-22 14:21 | 34.10994 | -114.65209 | 36026 ft | 373 kts | 255° |
| 2026-04-22 14:22 | 34.07830 | -114.73833 | 36028 ft | 378 kts | 246° |
| 2026-04-22 14:23 | 34.04042 | -114.82179 | 36046 ft | 377 kts | 246° |
| 2026-04-22 14:23 | 34.01578 | -114.87717 | 36043 ft | 377 kts | 246° |
| 2026-04-22 14:24 | 33.99102 | -114.93307 | 36042 ft | 377 kts | 246° |
| 2026-04-22 14:24 | 33.96624 | -114.98893 | 36060 ft | 377 kts | 246° |
| 2026-04-22 14:25 | 33.94135 | -115.04473 | 36064 ft | 378 kts | 246° |
| 2026-04-22 14:25 | 33.91638 | -115.10043 | 36055 ft | 378 kts | 246° |
| 2026-04-22 14:26 | 33.89139 | -115.15613 | 36062 ft | 378 kts | 246° |
| 2026-04-22 14:26 | 33.86649 | -115.21157 | 36058 ft | 379 kts | 246° |
| 2026-04-22 14:26 | 33.85389 | -115.23959 | 35783 ft | 381 kts | 246° |
| 2026-04-22 14:27 | 33.84131 | -115.26755 | 35547 ft | 379 kts | 246° |
| 2026-04-22 14:27 | 33.82893 | -115.29503 | 35301 ft | 378 kts | 246° |
| 2026-04-22 14:27 | 33.81764 | -115.32006 | 35091 ft | 380 kts | 245° |
| 2026-04-22 14:27 | 33.80493 | -115.34827 | 34846 ft | 382 kts | 245° |
| 2026-04-22 14:28 | 33.79210 | -115.37672 | 34604 ft | 384 kts | 245° |
| 2026-04-22 14:28 | 33.77951 | -115.40459 | 34378 ft | 385 kts | 245° |
| 2026-04-22 14:28 | 33.76670 | -115.43293 | 34152 ft | 386 kts | 245° |
| 2026-04-22 14:28 | 33.75389 | -115.46125 | 33887 ft | 386 kts | 245° |
| 2026-04-22 14:29 | 33.74103 | -115.48967 | 33611 ft | 386 kts | 245° |
| 2026-04-22 14:29 | 33.72818 | -115.51799 | 33245 ft | 384 kts | 245° |
| 2026-04-22 14:29 | 33.71560 | -115.54596 | 32799 ft | 377 kts | 245° |
| 2026-04-22 14:29 | 33.70337 | -115.57367 | 32293 ft | 373 kts | 245° |
| 2026-04-22 14:30 | 33.69132 | -115.60113 | 31819 ft | 369 kts | 245° |
| 2026-04-22 14:30 | 33.67941 | -115.62830 | 31345 ft | 366 kts | 245° |
| 2026-04-22 14:30 | 33.66755 | -115.65527 | 30880 ft | 363 kts | 245° |
| 2026-04-22 14:30 | 33.65580 | -115.68195 | 30422 ft | 360 kts | 245° |
| 2026-04-22 14:31 | 33.64427 | -115.70809 | 29932 ft | 358 kts | 245° |
| 2026-04-22 14:31 | 33.63261 | -115.73447 | 29414 ft | 355 kts | 245° |
| 2026-04-22 14:31 | 33.62103 | -115.76050 | 28919 ft | 352 kts | 244° |
| 2026-04-22 14:31 | 33.60808 | -115.78535 | 28436 ft | 350 kts | 240° |
| 2026-04-22 14:32 | 33.59416 | -115.80922 | 27989 ft | 347 kts | 239° |
| 2026-04-22 14:32 | 33.58015 | -115.83271 | 27529 ft | 345 kts | 239° |
| 2026-04-22 14:32 | 33.56634 | -115.85605 | 27058 ft | 342 kts | 239° |
| 2026-04-22 14:32 | 33.55269 | -115.87937 | 26617 ft | 340 kts | 239° |
| 2026-04-22 14:33 | 33.53924 | -115.90257 | 26180 ft | 337 kts | 239° |
| 2026-04-22 14:33 | 33.52608 | -115.92531 | 25739 ft | 335 kts | 239° |
| 2026-04-22 14:33 | 33.51282 | -115.94824 | 25298 ft | 333 kts | 239° |
| 2026-04-22 14:33 | 33.49953 | -115.97118 | 24858 ft | 332 kts | 239° |
| 2026-04-22 14:34 | 33.48641 | -115.99383 | 24423 ft | 330 kts | 239° |
| 2026-04-22 14:34 | 33.47334 | -116.01636 | 23972 ft | 329 kts | 238° |
| 2026-04-22 14:34 | 33.46028 | -116.03888 | 23508 ft | 328 kts | 238° |
| 2026-04-22 14:34 | 33.44743 | -116.06102 | 23002 ft | 326 kts | 238° |
| 2026-04-22 14:35 | 33.43451 | -116.08326 | 22544 ft | 324 kts | 238° |
| 2026-04-22 14:35 | 33.42168 | -116.10536 | 22096 ft | 322 kts | 238° |
| 2026-04-22 14:35 | 33.40896 | -116.12724 | 21662 ft | 319 kts | 238° |
| 2026-04-22 14:35 | 33.39634 | -116.14894 | 21247 ft | 317 kts | 238° |
| 2026-04-22 14:36 | 33.38377 | -116.17054 | 20830 ft | 315 kts | 237° |
| 2026-04-22 14:36 | 33.37128 | -116.19199 | 20396 ft | 313 kts | 238° |
| 2026-04-22 14:36 | 33.35883 | -116.21336 | 20003 ft | 314 kts | 238° |
| 2026-04-22 14:36 | 33.34618 | -116.23492 | 19582 ft | 317 kts | 236° |
| 2026-04-22 14:37 | 33.33414 | -116.25009 | 19224 ft | 324 kts | 223° |
| 2026-04-22 14:37 | 33.32802 | -116.25550 | 19090 ft | 327 kts | 217° |
| 2026-04-22 14:37 | 33.30825 | -116.26861 | 18694 ft | 329 kts | 212° |
| 2026-04-22 14:37 | 33.28761 | -116.28063 | 18245 ft | 329 kts | 210° |
| 2026-04-22 14:38 | 33.26694 | -116.29233 | 17780 ft | 328 kts | 210° |
| 2026-04-22 14:38 | 33.24638 | -116.30398 | 17337 ft | 327 kts | 210° |
| 2026-04-22 14:38 | 33.22595 | -116.31568 | 16907 ft | 325 kts | 210° |
| 2026-04-22 14:38 | 33.20568 | -116.32739 | 16487 ft | 323 kts | 210° |
| 2026-04-22 14:39 | 33.18551 | -116.33911 | 16079 ft | 321 kts | 210° |
| 2026-04-22 14:39 | 33.16551 | -116.35077 | 15651 ft | 319 kts | 210° |
| 2026-04-22 14:39 | 33.14545 | -116.36250 | 15163 ft | 321 kts | 210° |
| 2026-04-22 14:40 | 33.11214 | -116.38196 | 14477 ft | 319 kts | 210° |
| 2026-04-22 14:40 | 33.08569 | -116.39741 | 13915 ft | 319 kts | 210° |
| 2026-04-22 14:40 | 33.06581 | -116.40901 | 13478 ft | 318 kts | 210° |
| 2026-04-22 14:40 | 33.04594 | -116.42060 | 13041 ft | 316 kts | 210° |
| 2026-04-22 14:41 | 33.02619 | -116.43210 | 12632 ft | 314 kts | 210° |
| 2026-04-22 14:41 | 33.00686 | -116.44354 | 12445 ft | 304 kts | 213° |
| 2026-04-22 14:41 | 32.98988 | -116.45832 | 12043 ft | 300 kts | 224° |
| 2026-04-22 14:41 | 32.97419 | -116.47450 | 11662 ft | 297 kts | 224° |
| 2026-04-22 14:42 | 32.95868 | -116.49064 | 11297 ft | 295 kts | 224° |
| 2026-04-22 14:42 | 32.94327 | -116.50657 | 10941 ft | 293 kts | 224° |
| 2026-04-22 14:42 | 32.92795 | -116.52228 | 10621 ft | 292 kts | 224° |
| 2026-04-22 14:42 | 32.91282 | -116.53764 | 10554 ft | 280 kts | 223° |
| 2026-04-22 14:43 | 32.89822 | -116.55242 | 10482 ft | 271 kts | 223° |
| 2026-04-22 14:43 | 32.88400 | -116.56677 | 10277 ft | 267 kts | 223° |
| 2026-04-22 14:43 | 32.86983 | -116.58105 | 9971 ft | 267 kts | 223° |
| 2026-04-22 14:43 | 32.85563 | -116.59535 | 9656 ft | 267 kts | 223° |
| 2026-04-22 14:44 | 32.84153 | -116.60956 | 9372 ft | 265 kts | 223° |
| 2026-04-22 14:44 | 32.82749 | -116.62370 | 9081 ft | 264 kts | 224° |
| 2026-04-22 14:44 | 32.81358 | -116.63771 | 8738 ft | 265 kts | 223° |
| 2026-04-22 14:44 | 32.79958 | -116.65179 | 8525 ft | 260 kts | 223° |
| 2026-04-22 14:45 | 32.78608 | -116.66536 | 8274 ft | 258 kts | 224° |
| 2026-04-22 14:45 | 32.77296 | -116.67987 | 7991 ft | 254 kts | 236° |
| 2026-04-22 14:45 | 32.76402 | -116.69787 | 7761 ft | 253 kts | 244° |
| 2026-04-22 14:45 | 32.75547 | -116.71638 | 7512 ft | 257 kts | 244° |
| 2026-04-22 14:46 | 32.74674 | -116.73503 | 7253 ft | 258 kts | 244° |
| 2026-04-22 14:46 | 32.73799 | -116.75360 | 6990 ft | 257 kts | 244° |
| 2026-04-22 14:46 | 32.72939 | -116.77180 | 6731 ft | 256 kts | 244° |
| 2026-04-22 14:46 | 32.72068 | -116.79020 | 6462 ft | 255 kts | 244° |
| 2026-04-22 14:47 | 32.71195 | -116.80860 | 6186 ft | 255 kts | 243° |
| 2026-04-22 14:47 | 32.70390 | -116.82734 | 5892 ft | 254 kts | 250° |
| 2026-04-22 14:47 | 32.69773 | -116.84698 | 5591 ft | 254 kts | 253° |
| 2026-04-22 14:47 | 32.69179 | -116.86687 | 5283 ft | 255 kts | 252° |
| 2026-04-22 14:48 | 32.68581 | -116.88673 | 5025 ft | 254 kts | 252° |
| 2026-04-22 14:48 | 32.68017 | -116.90615 | 4977 ft | 244 kts | 255° |
| 2026-04-22 14:48 | 32.67750 | -116.92553 | 4970 ft | 232 kts | 266° |
| 2026-04-22 14:48 | 32.67645 | -116.94426 | 4897 ft | 223 kts | 272° |
| 2026-04-22 14:49 | 32.67895 | -116.96195 | 4862 ft | 212 kts | 284° |
| 2026-04-22 14:49 | 32.68248 | -116.97821 | 4797 ft | 201 kts | 286° |
| 2026-04-22 14:49 | 32.68616 | -116.99377 | 4609 ft | 193 kts | 286° |
| 2026-04-22 14:49 | 32.68986 | -117.00907 | 4304 ft | 192 kts | 287° |
| 2026-04-22 14:50 | 32.69235 | -117.01934 | 4112 ft | 189 kts | 287° |
| 2026-04-22 14:50 | 32.69686 | -117.03799 | 3924 ft | 166 kts | 287° |
| 2026-04-22 14:50 | 32.69996 | -117.05084 | 3596 ft | 160 kts | 287° |
| 2026-04-22 14:50 | 32.70305 | -117.06359 | 3110 ft | 162 kts | 287° |
| 2026-04-22 14:51 | 32.70617 | -117.07646 | 2750 ft | 154 kts | 288° |
| 2026-04-22 14:51 | 32.70900 | -117.08817 | 2456 ft | 145 kts | 288° |
| 2026-04-22 14:51 | 32.71178 | -117.09968 | 1987 ft | 145 kts | 288° |
| 2026-04-22 14:51 | 32.71457 | -117.11118 | 1524 ft | 145 kts | 288° |
| 2026-04-22 14:52 | 32.71727 | -117.12239 | 1264 ft | 141 kts | 288° |
| 2026-04-22 14:52 | 32.71998 | -117.13353 | 982 ft | 139 kts | 287° |
| 2026-04-22 14:52 | 32.72265 | -117.14460 | 774 ft | 142 kts | 287° |
| 2026-04-22 14:52 | 32.72530 | -117.15609 | 587 ft | 144 kts | 287° |
| 2026-04-22 14:53 | 32.72813 | -117.16748 | 367 ft | 145 kts | 288° |
| 2026-04-22 14:53 | 32.73101 | -117.17898 | 97 ft | 144 kts | 287° |
| 2026-04-22 14:53 | 32.73376 | -117.19019 | 21 ft | 131 kts | 287° |
| 2026-04-22 14:53 | 32.73562 | -117.19805 | 26 ft | 67 kts | 285° |
| 2026-04-22 14:54 | 32.73629 | -117.20091 | 22 ft | 15 kts | 286° |
| 2026-04-22 14:54 | 32.73613 | -117.20202 | 22 ft | 10 kts | 215° |
| 2026-04-22 14:54 | 32.73588 | -117.20212 | 22 ft | 1 kts | 195° |
| 2026-04-22 14:54 | 32.73580 | -117.20215 | 23 ft | 1 kts | 195° |
| 2026-04-22 14:55 | 32.73571 | -117.20217 | 22 ft | 1 kts | 195° |
| 2026-04-22 14:55 | 32.73567 | -117.20219 | 22 ft | 0 kts | 195° |
| 2026-04-22 14:55 | 32.73565 | -117.20219 | 22 ft | 0 kts | 194° |
| 2026-04-22 14:55 | 32.73564 | -117.20219 | 22 ft | 0 kts | 194° |
| 2026-04-22 14:56 | 32.73558 | -117.20222 | 22 ft | 3 kts | 196° |
| 2026-04-22 14:57 | 32.73531 | -117.20231 | 21 ft | 5 kts | 196° |
| 2026-04-22 14:57 | 32.73485 | -117.20247 | 20 ft | 9 kts | 196° |
| 2026-04-22 14:57 | 32.73417 | -117.20270 | 22 ft | 8 kts | 196° |
| 2026-04-22 14:57 | 32.73411 | -117.20272 | 20 ft | 1 kts | 196° |
| 2026-04-22 14:58 | 32.73388 | -117.20288 | 20 ft | 5 kts | 231° |
| 2026-04-22 14:58 | 32.73380 | -117.20326 | 20 ft | 2 kts | 264° |
| 2026-04-22 14:58 | 32.73379 | -117.20342 | 20 ft | 2 kts | 266° |
| 2026-04-22 14:58 | 32.73378 | -117.20347 | 20 ft | 1 kts | 267° |
| 2026-04-22 14:59 | 32.73378 | -117.20350 | 20 ft | 0 kts | 267° |